Akers, Louisiana
Current Conditions -  °F | °C
As of 8:35 AM on Saturday 25 Oct 2014 (Local Time) from KHDC Reporting Station
Clear Clear  
Wind Chill: 13°   Ceiling: Unl
Heat Index: 13°   Visibility: 10mi
Dew Point:   Wind: 3mph
Humidity: 77%   Direction: 330°NNW
Pressure: 30.17"   Gusts: NA
Location:  30.29°N, 90.4°W
Report Text: KHDC 251335Z AUTO 33003KT 10SM CLR 13/09 A3017 RMK AO2
Loading
Personal Weather Stations






























Interactive Weather Map
Tropical Storm Tracking
New forecast layout! Learn more

10-Day Weather Forecast

Advertisements
Track Severe Weather on mobile